sensor_id;sensor_type;location;lat;lon;timestamp;P1;durP1;ratioP1;P2;durP2;ratioP2
63157;SDS011;49381;49.338;8.794;2022-08-16T00:01:22;5.72;;;2.83;;
63157;SDS011;49381;49.338;8.794;2022-08-16T00:03:22;4.07;;;2.53;;
63157;SDS011;49381;49.338;8.794;2022-08-16T00:05:23;4.63;;;2.58;;
63157;SDS011;49381;49.338;8.794;2022-08-16T00:07:24;7.30;;;2.90;;
63157;SDS011;49381;49.338;8.794;2022-08-16T00:09:26;3.97;;;2.60;;
63157;SDS011;49381;49.338;8.794;2022-08-16T00:11:26;3.58;;;2.50;;
63157;SDS011;49381;49.338;8.794;2022-08-16T00:13:26;3.88;;;2.35;;
63157;SDS011;49381;49.338;8.794;2022-08-16T00:15:31;5.65;;;2.80;;
63157;SDS011;49381;49.338;8.794;2022-08-16T00:17:34;5.68;;;2.70;;
63157;SDS011;49381;49.338;8.794;2022-08-16T00:19:34;3.75;;;2.53;;
63157;SDS011;49381;49.338;8.794;2022-08-16T00:21:35;5.13;;;3.25;;
63157;SDS011;49381;49.338;8.794;2022-08-16T00:23:35;4.88;;;3.00;;
63157;SDS011;49381;49.338;8.794;2022-08-16T00:25:37;4.95;;;2.80;;
63157;SDS011;49381;49.338;8.794;2022-08-16T00:27:38;3.65;;;2.90;;
63157;SDS011;49381;49.338;8.794;2022-08-16T00:29:38;4.80;;;2.78;;
63157;SDS011;49381;49.338;8.794;2022-08-16T00:31:38;6.25;;;2.78;;
63157;SDS011;49381;49.338;8.794;2022-08-16T00:33:39;4.00;;;2.70;;
63157;SDS011;49381;49.338;8.794;2022-08-16T00:35:39;4.43;;;2.78;;
63157;SDS011;49381;49.338;8.794;2022-08-16T00:37:39;4.32;;;3.00;;
63157;SDS011;49381;49.338;8.794;2022-08-16T00:39:40;5.53;;;2.90;;
63157;SDS011;49381;49.338;8.794;2022-08-16T00:41:42;4.22;;;2.70;;
63157;SDS011;49381;49.338;8.794;2022-08-16T00:43:44;4.35;;;2.45;;
63157;SDS011;49381;49.338;8.794;2022-08-16T00:45:46;3.55;;;2.42;;
63157;SDS011;49381;49.338;8.794;2022-08-16T00:47:52;3.63;;;2.58;;
63157;SDS011;49381;49.338;8.794;2022-08-16T00:49:53;4.30;;;2.63;;
63157;SDS011;49381;49.338;8.794;2022-08-16T00:51:53;4.15;;;3.10;;
63157;SDS011;49381;49.338;8.794;2022-08-16T00:53:54;4.68;;;3.50;;
63157;SDS011;49381;49.338;8.794;2022-08-16T00:55:55;6.05;;;3.35;;
63157;SDS011;49381;49.338;8.794;2022-08-16T00:57:58;7.32;;;3.22;;
63157;SDS011;49381;49.338;8.794;2022-08-16T00:59:59;4.75;;;2.72;;
63157;SDS011;49381;49.338;8.794;2022-08-16T01:01:59;4.10;;;2.85;;
63157;SDS011;49381;49.338;8.794;2022-08-16T01:04:00;8.30;;;3.28;;
63157;SDS011;49381;49.338;8.794;2022-08-16T01:06:01;7.55;;;2.58;;
63157;SDS011;49381;49.338;8.794;2022-08-16T01:08:03;4.82;;;3.13;;
63157;SDS011;49381;49.338;8.794;2022-08-16T01:10:06;3.95;;;2.63;;
63157;SDS011;49381;49.338;8.794;2022-08-16T01:12:07;4.13;;;2.90;;
63157;SDS011;49381;49.338;8.794;2022-08-16T01:14:11;5.40;;;2.83;;
63157;SDS011;49381;49.338;8.794;2022-08-16T01:16:22;5.80;;;2.83;;
63157;SDS011;49381;49.338;8.794;2022-08-16T01:18:27;6.07;;;2.75;;
63157;SDS011;49381;49.338;8.794;2022-08-16T01:20:33;4.72;;;3.20;;
63157;SDS011;49381;49.338;8.794;2022-08-16T01:22:40;5.03;;;3.45;;
63157;SDS011;49381;49.338;8.794;2022-08-16T01:24:50;5.40;;;3.33;;
63157;SDS011;49381;49.338;8.794;2022-08-16T01:26:55;5.68;;;3.38;;
63157;SDS011;49381;49.338;8.794;2022-08-16T01:28:59;6.20;;;3.55;;
63157;SDS011;49381;49.338;8.794;2022-08-16T01:31:01;6.43;;;3.70;;
63157;SDS011;49381;49.338;8.794;2022-08-16T01:33:03;7.63;;;3.67;;
63157;SDS011;49381;49.338;8.794;2022-08-16T01:35:07;4.07;;;2.55;;
63157;SDS011;49381;49.338;8.794;2022-08-16T01:37:10;4.20;;;2.97;;
63157;SDS011;49381;49.338;8.794;2022-08-16T01:39:13;6.60;;;3.20;;
63157;SDS011;49381;49.338;8.794;2022-08-16T01:41:17;4.18;;;3.10;;
63157;SDS011;49381;49.338;8.794;2022-08-16T01:43:19;5.10;;;3.10;;
63157;SDS011;49381;49.338;8.794;2022-08-16T01:45:21;3.95;;;3.15;;
63157;SDS011;49381;49.338;8.794;2022-08-16T01:47:22;4.78;;;2.80;;
63157;SDS011;49381;49.338;8.794;2022-08-16T01:49:23;5.70;;;3.17;;
63157;SDS011;49381;49.338;8.794;2022-08-16T01:51:27;4.80;;;3.25;;
63157;SDS011;49381;49.338;8.794;2022-08-16T01:53:28;4.07;;;2.67;;
63157;SDS011;49381;49.338;8.794;2022-08-16T01:55:29;3.72;;;2.80;;
63157;SDS011;49381;49.338;8.794;2022-08-16T01:57:31;4.38;;;2.95;;
63157;SDS011;49381;49.338;8.794;2022-08-16T01:59:32;5.43;;;3.50;;
63157;SDS011;49381;49.338;8.794;2022-08-16T02:01:33;3.58;;;2.58;;
63157;SDS011;49381;49.338;8.794;2022-08-16T02:03:33;5.25;;;3.30;;
63157;SDS011;49381;49.338;8.794;2022-08-16T02:05:34;6.13;;;3.33;;
63157;SDS011;49381;49.338;8.794;2022-08-16T02:07:34;4.82;;;2.97;;
63157;SDS011;49381;49.338;8.794;2022-08-16T02:09:36;4.50;;;2.80;;
63157;SDS011;49381;49.338;8.794;2022-08-16T02:11:37;4.97;;;3.25;;
63157;SDS011;49381;49.338;8.794;2022-08-16T02:13:40;4.93;;;2.95;;
63157;SDS011;49381;49.338;8.794;2022-08-16T02:15:41;6.03;;;3.05;;
63157;SDS011;49381;49.338;8.794;2022-08-16T02:17:41;4.35;;;3.08;;
63157;SDS011;49381;49.338;8.794;2022-08-16T02:19:42;4.90;;;3.45;;
63157;SDS011;49381;49.338;8.794;2022-08-16T02:21:43;5.57;;;3.30;;
63157;SDS011;49381;49.338;8.794;2022-08-16T02:23:48;6.13;;;3.20;;
63157;SDS011;49381;49.338;8.794;2022-08-16T02:25:48;4.75;;;3.40;;
63157;SDS011;49381;49.338;8.794;2022-08-16T02:27:49;7.28;;;3.10;;
63157;SDS011;49381;49.338;8.794;2022-08-16T02:29:50;6.20;;;3.10;;
63157;SDS011;49381;49.338;8.794;2022-08-16T02:31:51;4.20;;;3.28;;
63157;SDS011;49381;49.338;8.794;2022-08-16T02:33:51;5.60;;;3.15;;
63157;SDS011;49381;49.338;8.794;2022-08-16T02:35:51;5.30;;;3.10;;
63157;SDS011;49381;49.338;8.794;2022-08-16T02:37:52;7.47;;;3.08;;
63157;SDS011;49381;49.338;8.794;2022-08-16T02:39:53;6.85;;;3.63;;
63157;SDS011;49381;49.338;8.794;2022-08-16T02:41:53;4.50;;;3.28;;
63157;SDS011;49381;49.338;8.794;2022-08-16T02:43:54;5.85;;;2.95;;
63157;SDS011;49381;49.338;8.794;2022-08-16T02:45:55;5.30;;;3.47;;
63157;SDS011;49381;49.338;8.794;2022-08-16T02:47:56;4.75;;;3.30;;
63157;SDS011;49381;49.338;8.794;2022-08-16T02:49:57;4.82;;;3.08;;
63157;SDS011;49381;49.338;8.794;2022-08-16T02:51:57;5.90;;;3.60;;
63157;SDS011;49381;49.338;8.794;2022-08-16T02:53:57;4.47;;;3.20;;
63157;SDS011;49381;49.338;8.794;2022-08-16T02:55:58;5.20;;;3.40;;
63157;SDS011;49381;49.338;8.794;2022-08-16T02:57:58;4.35;;;2.72;;
63157;SDS011;49381;49.338;8.794;2022-08-16T02:59:59;5.18;;;3.17;;
63157;SDS011;49381;49.338;8.794;2022-08-16T03:02:00;4.40;;;3.00;;
63157;SDS011;49381;49.338;8.794;2022-08-16T03:04:01;4.13;;;3.00;;
63157;SDS011;49381;49.338;8.794;2022-08-16T03:06:03;5.53;;;3.35;;
63157;SDS011;49381;49.338;8.794;2022-08-16T03:08:04;4.78;;;3.47;;
63157;SDS011;49381;49.338;8.794;2022-08-16T03:10:05;5.15;;;3.65;;
63157;SDS011;49381;49.338;8.794;2022-08-16T03:12:07;5.63;;;3.78;;
63157;SDS011;49381;49.338;8.794;2022-08-16T03:14:08;7.47;;;4.30;;
63157;SDS011;49381;49.338;8.794;2022-08-16T03:16:08;5.85;;;3.65;;
63157;SDS011;49381;49.338;8.794;2022-08-16T03:18:10;5.13;;;3.97;;
63157;SDS011;49381;49.338;8.794;2022-08-16T03:20:13;6.53;;;4.03;;
63157;SDS011;49381;49.338;8.794;2022-08-16T03:22:15;5.95;;;3.40;;
63157;SDS011;49381;49.338;8.794;2022-08-16T03:24:15;6.25;;;3.65;;
63157;SDS011;49381;49.338;8.794;2022-08-16T03:26:16;5.82;;;3.30;;
63157;SDS011;49381;49.338;8.794;2022-08-16T03:28:16;5.40;;;3.50;;
63157;SDS011;49381;49.338;8.794;2022-08-16T03:30:18;7.97;;;3.60;;
63157;SDS011;49381;49.338;8.794;2022-08-16T03:32:20;4.60;;;3.00;;
63157;SDS011;49381;49.338;8.794;2022-08-16T03:34:22;4.38;;;2.97;;
63157;SDS011;49381;49.338;8.794;2022-08-16T03:36:22;3.92;;;2.90;;
63157;SDS011;49381;49.338;8.794;2022-08-16T03:38:22;8.95;;;3.58;;
63157;SDS011;49381;49.338;8.794;2022-08-16T03:40:23;5.35;;;3.33;;
63157;SDS011;49381;49.338;8.794;2022-08-16T03:42:23;6.20;;;3.50;;
63157;SDS011;49381;49.338;8.794;2022-08-16T03:44:24;10.52;;;4.10;;
63157;SDS011;49381;49.338;8.794;2022-08-16T03:46:24;6.35;;;3.70;;
63157;SDS011;49381;49.338;8.794;2022-08-16T03:48:26;6.68;;;3.90;;
63157;SDS011;49381;49.338;8.794;2022-08-16T03:50:30;5.43;;;3.70;;
63157;SDS011;49381;49.338;8.794;2022-08-16T03:52:30;4.82;;;3.75;;
63157;SDS011;49381;49.338;8.794;2022-08-16T03:54:31;5.68;;;3.35;;
63157;SDS011;49381;49.338;8.794;2022-08-16T03:56:34;6.90;;;3.88;;
63157;SDS011;49381;49.338;8.794;2022-08-16T03:58:35;5.70;;;3.42;;
63157;SDS011;49381;49.338;8.794;2022-08-16T04:00:35;5.15;;;3.75;;
63157;SDS011;49381;49.338;8.794;2022-08-16T04:02:36;5.85;;;4.00;;
63157;SDS011;49381;49.338;8.794;2022-08-16T04:04:36;5.45;;;3.35;;
63157;SDS011;49381;49.338;8.794;2022-08-16T04:06:38;5.13;;;3.20;;
63157;SDS011;49381;49.338;8.794;2022-08-16T04:08:38;4.88;;;3.22;;
63157;SDS011;49381;49.338;8.794;2022-08-16T04:10:38;6.05;;;4.07;;
63157;SDS011;49381;49.338;8.794;2022-08-16T04:12:39;5.25;;;3.22;;
63157;SDS011;49381;49.338;8.794;2022-08-16T04:14:40;5.95;;;3.70;;
63157;SDS011;49381;49.338;8.794;2022-08-16T04:16:40;4.90;;;3.08;;
63157;SDS011;49381;49.338;8.794;2022-08-16T04:18:40;4.50;;;3.08;;
63157;SDS011;49381;49.338;8.794;2022-08-16T04:20:41;6.97;;;3.72;;
63157;SDS011;49381;49.338;8.794;2022-08-16T04:22:42;6.78;;;3.45;;
63157;SDS011;49381;49.338;8.794;2022-08-16T04:24:43;6.78;;;3.13;;
63157;SDS011;49381;49.338;8.794;2022-08-16T04:26:44;3.42;;;2.83;;
63157;SDS011;49381;49.338;8.794;2022-08-16T04:28:44;5.07;;;3.33;;
63157;SDS011;49381;49.338;8.794;2022-08-16T04:30:45;4.20;;;3.22;;
63157;SDS011;49381;49.338;8.794;2022-08-16T04:32:45;6.85;;;3.22;;
63157;SDS011;49381;49.338;8.794;2022-08-16T04:34:45;5.20;;;3.28;;
63157;SDS011;49381;49.338;8.794;2022-08-16T04:36:46;4.40;;;3.22;;
63157;SDS011;49381;49.338;8.794;2022-08-16T04:38:48;5.95;;;3.33;;
63157;SDS011;49381;49.338;8.794;2022-08-16T04:40:48;7.57;;;3.33;;
63157;SDS011;49381;49.338;8.794;2022-08-16T04:42:48;5.07;;;3.33;;
63157;SDS011;49381;49.338;8.794;2022-08-16T04:44:49;5.60;;;3.35;;
63157;SDS011;49381;49.338;8.794;2022-08-16T04:46:49;4.80;;;3.30;;
63157;SDS011;49381;49.338;8.794;2022-08-16T04:48:50;6.05;;;3.25;;
63157;SDS011;49381;49.338;8.794;2022-08-16T04:50:50;6.18;;;3.58;;
63157;SDS011;49381;49.338;8.794;2022-08-16T04:52:51;4.55;;;3.40;;
63157;SDS011;49381;49.338;8.794;2022-08-16T04:54:52;6.85;;;3.08;;
63157;SDS011;49381;49.338;8.794;2022-08-16T04:56:53;4.50;;;3.17;;
63157;SDS011;49381;49.338;8.794;2022-08-16T04:58:53;6.53;;;3.20;;
63157;SDS011;49381;49.338;8.794;2022-08-16T05:00:53;5.13;;;3.38;;
63157;SDS011;49381;49.338;8.794;2022-08-16T05:02:54;6.90;;;3.45;;
63157;SDS011;49381;49.338;8.794;2022-08-16T05:04:54;7.18;;;3.42;;
63157;SDS011;49381;49.338;8.794;2022-08-16T05:06:54;5.32;;;3.42;;
63157;SDS011;49381;49.338;8.794;2022-08-16T05:08:55;6.07;;;3.50;;
63157;SDS011;49381;49.338;8.794;2022-08-16T05:10:57;6.32;;;3.35;;
63157;SDS011;49381;49.338;8.794;2022-08-16T05:12:58;7.03;;;3.40;;
63157;SDS011;49381;49.338;8.794;2022-08-16T05:15:00;6.10;;;3.55;;
63157;SDS011;49381;49.338;8.794;2022-08-16T05:17:00;5.82;;;3.85;;
63157;SDS011;49381;49.338;8.794;2022-08-16T05:19:00;5.20;;;3.53;;
63157;SDS011;49381;49.338;8.794;2022-08-16T05:21:01;5.88;;;3.15;;
63157;SDS011;49381;49.338;8.794;2022-08-16T05:23:01;5.82;;;3.80;;
63157;SDS011;49381;49.338;8.794;2022-08-16T05:25:02;5.70;;;3.95;;
63157;SDS011;49381;49.338;8.794;2022-08-16T05:27:04;5.78;;;3.17;;
63157;SDS011;49381;49.338;8.794;2022-08-16T05:29:04;3.92;;;2.90;;
63157;SDS011;49381;49.338;8.794;2022-08-16T05:31:04;9.52;;;4.18;;
63157;SDS011;49381;49.338;8.794;2022-08-16T05:33:05;5.35;;;3.72;;
63157;SDS011;49381;49.338;8.794;2022-08-16T05:35:07;8.27;;;4.18;;
63157;SDS011;49381;49.338;8.794;2022-08-16T05:37:08;5.60;;;3.40;;
63157;SDS011;49381;49.338;8.794;2022-08-16T05:39:09;8.65;;;4.22;;
63157;SDS011;49381;49.338;8.794;2022-08-16T05:41:09;9.90;;;3.90;;
63157;SDS011;49381;49.338;8.794;2022-08-16T05:43:11;9.57;;;4.40;;
63157;SDS011;49381;49.338;8.794;2022-08-16T05:45:11;8.93;;;3.80;;
63157;SDS011;49381;49.338;8.794;2022-08-16T05:47:12;7.53;;;4.53;;
63157;SDS011;49381;49.338;8.794;2022-08-16T05:49:12;6.20;;;3.67;;
63157;SDS011;49381;49.338;8.794;2022-08-16T05:51:13;5.00;;;3.30;;
63157;SDS011;49381;49.338;8.794;2022-08-16T05:53:13;10.27;;;4.43;;
63157;SDS011;49381;49.338;8.794;2022-08-16T05:55:14;6.43;;;3.70;;
63157;SDS011;49381;49.338;8.794;2022-08-16T05:57:14;7.80;;;3.40;;
63157;SDS011;49381;49.338;8.794;2022-08-16T05:59:17;4.75;;;3.45;;
63157;SDS011;49381;49.338;8.794;2022-08-16T06:01:17;5.43;;;3.80;;
63157;SDS011;49381;49.338;8.794;2022-08-16T06:03:18;7.57;;;4.03;;
63157;SDS011;49381;49.338;8.794;2022-08-16T06:05:18;9.43;;;4.53;;
63157;SDS011;49381;49.338;8.794;2022-08-16T06:07:18;6.05;;;3.58;;
63157;SDS011;49381;49.338;8.794;2022-08-16T06:09:19;6.43;;;4.03;;
63157;SDS011;49381;49.338;8.794;2022-08-16T06:11:19;8.05;;;3.95;;
63157;SDS011;49381;49.338;8.794;2022-08-16T06:13:20;5.53;;;3.75;;
63157;SDS011;49381;49.338;8.794;2022-08-16T06:15:21;6.57;;;3.60;;
63157;SDS011;49381;49.338;8.794;2022-08-16T06:17:22;6.07;;;3.50;;
63157;SDS011;49381;49.338;8.794;2022-08-16T06:19:22;6.47;;;3.60;;
63157;SDS011;49381;49.338;8.794;2022-08-16T06:21:23;8.98;;;4.30;;
63157;SDS011;49381;49.338;8.794;2022-08-16T06:23:23;7.32;;;3.92;;
63157;SDS011;49381;49.338;8.794;2022-08-16T06:25:24;6.75;;;3.95;;
63157;SDS011;49381;49.338;8.794;2022-08-16T06:27:26;5.97;;;3.58;;
63157;SDS011;49381;49.338;8.794;2022-08-16T06:29:26;4.57;;;3.63;;
63157;SDS011;49381;49.338;8.794;2022-08-16T06:31:28;5.22;;;3.60;;
63157;SDS011;49381;49.338;8.794;2022-08-16T06:33:28;7.13;;;4.10;;
63157;SDS011;49381;49.338;8.794;2022-08-16T06:35:29;7.70;;;4.25;;
63157;SDS011;49381;49.338;8.794;2022-08-16T06:37:29;6.82;;;3.72;;
63157;SDS011;49381;49.338;8.794;2022-08-16T06:39:29;5.32;;;3.95;;
63157;SDS011;49381;49.338;8.794;2022-08-16T06:41:30;7.22;;;4.55;;
63157;SDS011;49381;49.338;8.794;2022-08-16T06:43:30;5.55;;;3.58;;
63157;SDS011;49381;49.338;8.794;2022-08-16T06:45:33;5.13;;;3.60;;
63157;SDS011;49381;49.338;8.794;2022-08-16T06:47:35;5.88;;;4.53;;
63157;SDS011;49381;49.338;8.794;2022-08-16T06:49:35;6.60;;;3.78;;
63157;SDS011;49381;49.338;8.794;2022-08-16T06:51:35;7.25;;;3.78;;
63157;SDS011;49381;49.338;8.794;2022-08-16T06:53:36;5.75;;;4.32;;
63157;SDS011;49381;49.338;8.794;2022-08-16T06:55:37;8.10;;;4.22;;
63157;SDS011;49381;49.338;8.794;2022-08-16T06:57:37;6.65;;;4.28;;
63157;SDS011;49381;49.338;8.794;2022-08-16T06:59:38;5.38;;;4.10;;
63157;SDS011;49381;49.338;8.794;2022-08-16T07:01:38;7.07;;;4.40;;
63157;SDS011;49381;49.338;8.794;2022-08-16T07:03:40;5.95;;;4.05;;
63157;SDS011;49381;49.338;8.794;2022-08-16T07:05:41;7.38;;;4.03;;
63157;SDS011;49381;49.338;8.794;2022-08-16T07:07:41;7.47;;;4.25;;
63157;SDS011;49381;49.338;8.794;2022-08-16T07:09:42;8.10;;;4.10;;
63157;SDS011;49381;49.338;8.794;2022-08-16T07:11:42;6.53;;;4.13;;
63157;SDS011;49381;49.338;8.794;2022-08-16T07:13:43;5.15;;;4.20;;
63157;SDS011;49381;49.338;8.794;2022-08-16T07:15:45;8.30;;;4.60;;
63157;SDS011;49381;49.338;8.794;2022-08-16T07:17:46;5.32;;;3.90;;
63157;SDS011;49381;49.338;8.794;2022-08-16T07:19:48;7.25;;;4.28;;
63157;SDS011;49381;49.338;8.794;2022-08-16T07:21:49;12.07;;;4.97;;
63157;SDS011;49381;49.338;8.794;2022-08-16T07:23:49;6.20;;;4.43;;
63157;SDS011;49381;49.338;8.794;2022-08-16T07:25:52;8.93;;;4.28;;
63157;SDS011;49381;49.338;8.794;2022-08-16T07:27:55;4.85;;;3.78;;
63157;SDS011;49381;49.338;8.794;2022-08-16T07:29:55;5.45;;;4.22;;
63157;SDS011;49381;49.338;8.794;2022-08-16T07:31:56;5.22;;;3.47;;
63157;SDS011;49381;49.338;8.794;2022-08-16T07:33:56;10.38;;;5.13;;
63157;SDS011;49381;49.338;8.794;2022-08-16T07:35:59;6.60;;;4.32;;
63157;SDS011;49381;49.338;8.794;2022-08-16T07:37:59;8.35;;;4.25;;
63157;SDS011;49381;49.338;8.794;2022-08-16T07:40:00;7.07;;;4.63;;
63157;SDS011;49381;49.338;8.794;2022-08-16T07:42:00;8.70;;;4.88;;
63157;SDS011;49381;49.338;8.794;2022-08-16T07:44:00;7.32;;;4.38;;
63157;SDS011;49381;49.338;8.794;2022-08-16T07:46:01;6.93;;;4.63;;
63157;SDS011;49381;49.338;8.794;2022-08-16T07:48:02;6.20;;;3.97;;
63157;SDS011;49381;49.338;8.794;2022-08-16T07:50:03;7.45;;;4.40;;
63157;SDS011;49381;49.338;8.794;2022-08-16T07:52:06;6.28;;;4.32;;
63157;SDS011;49381;49.338;8.794;2022-08-16T07:54:07;6.60;;;4.32;;
63157;SDS011;49381;49.338;8.794;2022-08-16T07:56:08;7.38;;;4.30;;
63157;SDS011;49381;49.338;8.794;2022-08-16T07:58:09;7.10;;;4.22;;
63157;SDS011;49381;49.338;8.794;2022-08-16T08:00:10;9.63;;;4.65;;
63157;SDS011;49381;49.338;8.794;2022-08-16T08:02:13;7.78;;;4.45;;
63157;SDS011;49381;49.338;8.794;2022-08-16T08:04:14;8.52;;;4.75;;
63157;SDS011;49381;49.338;8.794;2022-08-16T08:06:14;7.15;;;4.45;;
63157;SDS011;49381;49.338;8.794;2022-08-16T08:08:17;7.53;;;4.55;;
63157;SDS011;49381;49.338;8.794;2022-08-16T08:10:17;6.47;;;4.15;;
63157;SDS011;49381;49.338;8.794;2022-08-16T08:12:18;8.15;;;5.40;;
63157;SDS011;49381;49.338;8.794;2022-08-16T08:14:18;13.50;;;5.28;;
63157;SDS011;49381;49.338;8.794;2022-08-16T08:16:19;9.50;;;4.32;;
63157;SDS011;49381;49.338;8.794;2022-08-16T08:18:22;14.43;;;6.40;;
63157;SDS011;49381;49.338;8.794;2022-08-16T08:20:23;11.75;;;4.85;;
63157;SDS011;49381;49.338;8.794;2022-08-16T08:22:23;10.50;;;4.70;;
63157;SDS011;49381;49.338;8.794;2022-08-16T08:24:25;6.35;;;4.43;;
63157;SDS011;49381;49.338;8.794;2022-08-16T08:26:25;8.57;;;4.60;;
63157;SDS011;49381;49.338;8.794;2022-08-16T08:28:26;10.40;;;5.05;;
63157;SDS011;49381;49.338;8.794;2022-08-16T08:30:26;8.95;;;5.03;;
63157;SDS011;49381;49.338;8.794;2022-08-16T08:32:27;11.10;;;6.22;;
63157;SDS011;49381;49.338;8.794;2022-08-16T08:34:27;9.63;;;6.57;;
63157;SDS011;49381;49.338;8.794;2022-08-16T08:36:30;11.38;;;4.68;;
63157;SDS011;49381;49.338;8.794;2022-08-16T08:38:33;7.82;;;5.05;;
63157;SDS011;49381;49.338;8.794;2022-08-16T08:40:35;9.88;;;6.20;;
63157;SDS011;49381;49.338;8.794;2022-08-16T08:42:36;8.35;;;5.85;;
63157;SDS011;49381;49.338;8.794;2022-08-16T08:44:37;9.80;;;5.53;;
63157;SDS011;49381;49.338;8.794;2022-08-16T08:46:38;6.20;;;5.20;;
63157;SDS011;49381;49.338;8.794;2022-08-16T08:48:38;7.50;;;4.95;;
63157;SDS011;49381;49.338;8.794;2022-08-16T08:50:39;7.80;;;4.80;;
63157;SDS011;49381;49.338;8.794;2022-08-16T08:52:39;7.32;;;5.00;;
63157;SDS011;49381;49.338;8.794;2022-08-16T08:54:39;8.15;;;5.70;;
63157;SDS011;49381;49.338;8.794;2022-08-16T08:56:42;6.93;;;5.32;;
63157;SDS011;49381;49.338;8.794;2022-08-16T08:58:42;8.52;;;6.32;;
63157;SDS011;49381;49.338;8.794;2022-08-16T09:00:44;8.57;;;5.65;;
63157;SDS011;49381;49.338;8.794;2022-08-16T09:02:45;10.40;;;5.63;;
63157;SDS011;49381;49.338;8.794;2022-08-16T09:04:45;9.80;;;6.15;;
63157;SDS011;49381;49.338;8.794;2022-08-16T09:06:46;11.65;;;5.95;;
63157;SDS011;49381;49.338;8.794;2022-08-16T09:08:47;10.38;;;5.85;;
63157;SDS011;49381;49.338;8.794;2022-08-16T09:10:50;7.50;;;5.45;;
63157;SDS011;49381;49.338;8.794;2022-08-16T09:12:56;7.10;;;5.32;;
63157;SDS011;49381;49.338;8.794;2022-08-16T09:14:56;8.48;;;5.80;;
63157;SDS011;49381;49.338;8.794;2022-08-16T09:16:57;9.50;;;6.03;;
63157;SDS011;49381;49.338;8.794;2022-08-16T09:18:57;10.90;;;5.60;;
63157;SDS011;49381;49.338;8.794;2022-08-16T09:20:57;10.73;;;5.82;;
63157;SDS011;49381;49.338;8.794;2022-08-16T09:22:58;10.70;;;6.25;;
63157;SDS011;49381;49.338;8.794;2022-08-16T09:24:58;9.25;;;5.75;;
63157;SDS011;49381;49.338;8.794;2022-08-16T09:26:59;8.63;;;5.85;;
63157;SDS011;49381;49.338;8.794;2022-08-16T09:29:00;9.15;;;5.47;;
63157;SDS011;49381;49.338;8.794;2022-08-16T09:31:01;10.45;;;5.90;;
63157;SDS011;49381;49.338;8.794;2022-08-16T09:33:02;9.35;;;6.03;;
63157;SDS011;49381;49.338;8.794;2022-08-16T09:35:05;9.40;;;6.30;;
63157;SDS011;49381;49.338;8.794;2022-08-16T09:37:09;9.43;;;5.72;;
63157;SDS011;49381;49.338;8.794;2022-08-16T09:39:09;6.90;;;5.78;;
63157;SDS011;49381;49.338;8.794;2022-08-16T09:41:09;7.35;;;5.15;;
63157;SDS011;49381;49.338;8.794;2022-08-16T09:43:11;7.10;;;5.35;;
63157;SDS011;49381;49.338;8.794;2022-08-16T09:45:15;10.13;;;5.88;;
63157;SDS011;49381;49.338;8.794;2022-08-16T09:47:15;6.70;;;4.95;;
63157;SDS011;49381;49.338;8.794;2022-08-16T09:49:16;7.30;;;5.35;;
63157;SDS011;49381;49.338;8.794;2022-08-16T09:51:20;8.75;;;5.78;;
63157;SDS011;49381;49.338;8.794;2022-08-16T09:53:21;8.82;;;5.40;;
63157;SDS011;49381;49.338;8.794;2022-08-16T09:55:21;6.07;;;5.03;;
63157;SDS011;49381;49.338;8.794;2022-08-16T09:57:22;12.25;;;5.88;;
63157;SDS011;49381;49.338;8.794;2022-08-16T09:59:22;11.43;;;5.70;;
63157;SDS011;49381;49.338;8.794;2022-08-16T10:01:25;10.18;;;5.40;;
63157;SDS011;49381;49.338;8.794;2022-08-16T10:03:25;7.65;;;5.30;;
63157;SDS011;49381;49.338;8.794;2022-08-16T10:05:26;7.40;;;5.70;;
63157;SDS011;49381;49.338;8.794;2022-08-16T10:07:27;8.82;;;5.35;;
63157;SDS011;49381;49.338;8.794;2022-08-16T10:09:29;7.18;;;4.40;;
63157;SDS011;49381;49.338;8.794;2022-08-16T10:11:29;7.65;;;5.35;;
63157;SDS011;49381;49.338;8.794;2022-08-16T10:13:30;8.75;;;5.30;;
63157;SDS011;49381;49.338;8.794;2022-08-16T10:15:31;6.93;;;5.00;;
63157;SDS011;49381;49.338;8.794;2022-08-16T10:17:34;8.38;;;5.47;;
63157;SDS011;49381;49.338;8.794;2022-08-16T10:19:34;7.15;;;4.82;;
63157;SDS011;49381;49.338;8.794;2022-08-16T10:21:34;8.18;;;5.00;;
63157;SDS011;49381;49.338;8.794;2022-08-16T10:23:35;9.40;;;5.13;;
63157;SDS011;49381;49.338;8.794;2022-08-16T10:25:38;7.95;;;5.95;;
63157;SDS011;49381;49.338;8.794;2022-08-16T10:27:40;7.35;;;5.05;;
63157;SDS011;49381;49.338;8.794;2022-08-16T10:29:40;7.82;;;5.45;;
63157;SDS011;49381;49.338;8.794;2022-08-16T10:31:40;8.13;;;5.38;;
63157;SDS011;49381;49.338;8.794;2022-08-16T10:33:42;8.15;;;5.35;;
63157;SDS011;49381;49.338;8.794;2022-08-16T10:35:43;8.45;;;5.55;;
63157;SDS011;49381;49.338;8.794;2022-08-16T10:37:44;6.05;;;4.60;;
63157;SDS011;49381;49.338;8.794;2022-08-16T10:39:45;7.78;;;5.13;;
63157;SDS011;49381;49.338;8.794;2022-08-16T10:41:45;5.65;;;4.68;;
63157;SDS011;49381;49.338;8.794;2022-08-16T10:43:45;6.15;;;4.60;;
63157;SDS011;49381;49.338;8.794;2022-08-16T10:45:46;5.85;;;3.97;;
63157;SDS011;49381;49.338;8.794;2022-08-16T10:47:46;7.15;;;4.22;;
63157;SDS011;49381;49.338;8.794;2022-08-16T10:49:48;7.38;;;4.07;;
63157;SDS011;49381;49.338;8.794;2022-08-16T10:51:48;9.25;;;4.90;;
63157;SDS011;49381;49.338;8.794;2022-08-16T10:53:49;5.78;;;4.40;;
63157;SDS011;49381;49.338;8.794;2022-08-16T10:55:49;6.05;;;4.60;;
63157;SDS011;49381;49.338;8.794;2022-08-16T10:57:49;6.10;;;4.40;;
63157;SDS011;49381;49.338;8.794;2022-08-16T10:59:53;9.80;;;4.93;;
63157;SDS011;49381;49.338;8.794;2022-08-16T11:01:54;11.82;;;5.13;;
63157;SDS011;49381;49.338;8.794;2022-08-16T11:03:54;7.35;;;5.53;;
63157;SDS011;49381;49.338;8.794;2022-08-16T11:05:56;10.30;;;5.70;;
63157;SDS011;49381;49.338;8.794;2022-08-16T11:07:57;10.48;;;5.18;;
63157;SDS011;49381;49.338;8.794;2022-08-16T11:09:57;7.43;;;5.38;;
63157;SDS011;49381;49.338;8.794;2022-08-16T11:11:57;10.23;;;5.70;;
63157;SDS011;49381;49.338;8.794;2022-08-16T11:13:58;9.85;;;5.47;;
63157;SDS011;49381;49.338;8.794;2022-08-16T11:15:58;7.68;;;5.68;;
63157;SDS011;49381;49.338;8.794;2022-08-16T11:17:59;8.85;;;5.85;;
63157;SDS011;49381;49.338;8.794;2022-08-16T11:20:03;8.52;;;5.57;;
63157;SDS011;49381;49.338;8.794;2022-08-16T11:22:07;13.15;;;5.68;;
63157;SDS011;49381;49.338;8.794;2022-08-16T11:24:08;9.48;;;5.00;;
63157;SDS011;49381;49.338;8.794;2022-08-16T11:26:08;5.47;;;4.75;;
63157;SDS011;49381;49.338;8.794;2022-08-16T11:28:08;7.28;;;5.70;;
63157;SDS011;49381;49.338;8.794;2022-08-16T11:30:10;8.25;;;6.28;;
63157;SDS011;49381;49.338;8.794;2022-08-16T11:32:12;19.15;;;15.43;;
63157;SDS011;49381;49.338;8.794;2022-08-16T11:34:12;10.13;;;6.60;;
63157;SDS011;49381;49.338;8.794;2022-08-16T11:36:13;7.15;;;5.25;;
63157;SDS011;49381;49.338;8.794;2022-08-16T11:38:15;7.05;;;5.18;;
63157;SDS011;49381;49.338;8.794;2022-08-16T11:40:17;5.88;;;5.10;;
63157;SDS011;49381;49.338;8.794;2022-08-16T11:42:17;6.63;;;4.63;;
63157;SDS011;49381;49.338;8.794;2022-08-16T11:44:17;6.43;;;4.43;;
63157;SDS011;49381;49.338;8.794;2022-08-16T11:46:18;6.88;;;5.10;;
63157;SDS011;49381;49.338;8.794;2022-08-16T11:48:18;6.65;;;5.22;;
63157;SDS011;49381;49.338;8.794;2022-08-16T11:50:19;9.63;;;5.45;;
63157;SDS011;49381;49.338;8.794;2022-08-16T11:52:19;10.57;;;5.22;;
63157;SDS011;49381;49.338;8.794;2022-08-16T11:54:21;10.13;;;4.53;;
63157;SDS011;49381;49.338;8.794;2022-08-16T11:56:22;9.63;;;5.60;;
63157;SDS011;49381;49.338;8.794;2022-08-16T11:58:23;5.35;;;4.00;;
63157;SDS011;49381;49.338;8.794;2022-08-16T12:00:25;4.63;;;3.95;;
63157;SDS011;49381;49.338;8.794;2022-08-16T12:02:26;7.45;;;4.80;;
63157;SDS011;49381;49.338;8.794;2022-08-16T12:04:26;5.00;;;4.35;;
63157;SDS011;49381;49.338;8.794;2022-08-16T12:06:27;5.82;;;4.40;;
63157;SDS011;49381;49.338;8.794;2022-08-16T12:08:27;5.30;;;4.38;;